sensor_id;sensor_type;location;lat;lon;timestamp;temperature;humidity
40822;DHT22;26542;50.836;5.356;2022-11-20T00:00:50;5.70;99.90
40822;DHT22;26542;50.836;5.356;2022-11-20T00:03:16;5.80;99.90
40822;DHT22;26542;50.836;5.356;2022-11-20T00:05:43;5.60;99.90
40822;DHT22;26542;50.836;5.356;2022-11-20T00:08:09;5.70;99.90
40822;DHT22;26542;50.836;5.356;2022-11-20T00:10:41;5.60;99.90
40822;DHT22;26542;50.836;5.356;2022-11-20T00:13:07;5.60;99.90
40822;DHT22;26542;50.836;5.356;2022-11-20T00:15:33;5.60;99.90
40822;DHT22;26542;50.836;5.356;2022-11-20T00:18:01;5.60;99.90
40822;DHT22;26542;50.836;5.356;2022-11-20T00:20:28;5.60;99.90
40822;DHT22;26542;50.836;5.356;2022-11-20T00:22:53;5.60;99.90
40822;DHT22;26542;50.836;5.356;2022-11-20T00:25:19;5.70;99.90
40822;DHT22;26542;50.836;5.356;2022-11-20T00:27:47;5.50;99.90
40822;DHT22;26542;50.836;5.356;2022-11-20T00:30:13;5.50;99.90
40822;DHT22;26542;50.836;5.356;2022-11-20T00:32:39;5.40;99.90
40822;DHT22;26542;50.836;5.356;2022-11-20T00:35:06;5.60;99.90
40822;DHT22;26542;50.836;5.356;2022-11-20T00:37:32;5.60;99.90
40822;DHT22;26542;50.836;5.356;2022-11-20T00:40:07;5.60;99.90
40822;DHT22;26542;50.836;5.356;2022-11-20T00:42:42;5.70;99.90
40822;DHT22;26542;50.836;5.356;2022-11-20T00:45:09;5.70;99.90
40822;DHT22;26542;50.836;5.356;2022-11-20T00:47:37;5.70;99.90
40822;DHT22;26542;50.836;5.356;2022-11-20T00:50:03;5.70;99.90
40822;DHT22;26542;50.836;5.356;2022-11-20T00:52:29;5.80;99.90
40822;DHT22;26542;50.836;5.356;2022-11-20T00:54:56;5.90;99.90
40822;DHT22;26542;50.836;5.356;2022-11-20T00:57:21;5.90;99.90
40822;DHT22;26542;50.836;5.356;2022-11-20T00:59:47;5.90;99.90
40822;DHT22;26542;50.836;5.356;2022-11-20T01:02:14;5.90;99.90
40822;DHT22;26542;50.836;5.356;2022-11-20T01:04:42;5.90;99.90
40822;DHT22;26542;50.836;5.356;2022-11-20T01:07:12;5.90;99.90
40822;DHT22;26542;50.836;5.356;2022-11-20T01:09:38;5.90;99.90
40822;DHT22;26542;50.836;5.356;2022-11-20T01:12:07;6.00;99.90
40822;DHT22;26542;50.836;5.356;2022-11-20T01:14:33;6.00;99.90
40822;DHT22;26542;50.836;5.356;2022-11-20T01:16:58;6.00;99.90
40822;DHT22;26542;50.836;5.356;2022-11-20T01:19:25;6.10;99.90
40822;DHT22;26542;50.836;5.356;2022-11-20T01:21:54;6.10;99.90
40822;DHT22;26542;50.836;5.356;2022-11-20T01:24:21;6.00;99.90
40822;DHT22;26542;50.836;5.356;2022-11-20T01:26:50;6.00;99.90
40822;DHT22;26542;50.836;5.356;2022-11-20T01:29:18;6.10;99.90
40822;DHT22;26542;50.836;5.356;2022-11-20T01:31:48;6.00;99.90
40822;DHT22;26542;50.836;5.356;2022-11-20T01:34:16;6.00;99.90
40822;DHT22;26542;50.836;5.356;2022-11-20T01:36:43;6.00;99.90
40822;DHT22;26542;50.836;5.356;2022-11-20T01:39:19;6.10;99.90
40822;DHT22;26542;50.836;5.356;2022-11-20T01:41:46;6.10;99.90
40822;DHT22;26542;50.836;5.356;2022-11-20T01:44:51;6.00;99.90
40822;DHT22;26542;50.836;5.356;2022-11-20T01:47:25;6.00;99.90
40822;DHT22;26542;50.836;5.356;2022-11-20T01:49:58;5.80;99.90
40822;DHT22;26542;50.836;5.356;2022-11-20T01:52:41;5.70;99.90
40822;DHT22;26542;50.836;5.356;2022-11-20T01:55:22;5.70;99.90
40822;DHT22;26542;50.836;5.356;2022-11-20T01:57:54;5.60;99.90
40822;DHT22;26542;50.836;5.356;2022-11-20T02:00:21;5.60;99.90
40822;DHT22;26542;50.836;5.356;2022-11-20T02:02:55;5.60;99.90
40822;DHT22;26542;50.836;5.356;2022-11-20T02:08:08;5.50;99.90
40822;DHT22;26542;50.836;5.356;2022-11-20T02:10:35;5.60;99.90
40822;DHT22;26542;50.836;5.356;2022-11-20T02:13:01;5.60;99.90
40822;DHT22;26542;50.836;5.356;2022-11-20T02:15:45;5.60;99.90
40822;DHT22;26542;50.836;5.356;2022-11-20T02:18:14;5.70;99.90
40822;DHT22;26542;50.836;5.356;2022-11-20T02:20:49;5.80;99.90
40822;DHT22;26542;50.836;5.356;2022-11-20T02:23:36;5.70;99.90
40822;DHT22;26542;50.836;5.356;2022-11-20T02:26:07;5.70;99.90
40822;DHT22;26542;50.836;5.356;2022-11-20T02:28:35;5.70;99.90
40822;DHT22;26542;50.836;5.356;2022-11-20T02:31:01;5.70;99.90
40822;DHT22;26542;50.836;5.356;2022-11-20T02:33:28;5.70;99.90
40822;DHT22;26542;50.836;5.356;2022-11-20T02:35:55;5.70;99.90
40822;DHT22;26542;50.836;5.356;2022-11-20T02:38:21;5.80;99.90
40822;DHT22;26542;50.836;5.356;2022-11-20T02:40:47;5.90;99.90
40822;DHT22;26542;50.836;5.356;2022-11-20T02:43:16;5.80;99.90
40822;DHT22;26542;50.836;5.356;2022-11-20T02:45:41;5.70;99.90
40822;DHT22;26542;50.836;5.356;2022-11-20T02:48:09;5.70;99.90
40822;DHT22;26542;50.836;5.356;2022-11-20T02:50:39;5.60;99.90
40822;DHT22;26542;50.836;5.356;2022-11-20T02:53:06;5.50;99.90
40822;DHT22;26542;50.836;5.356;2022-11-20T02:55:33;5.60;99.90
40822;DHT22;26542;50.836;5.356;2022-11-20T02:58:00;5.60;99.90
40822;DHT22;26542;50.836;5.356;2022-11-20T03:00:26;5.50;99.90
40822;DHT22;26542;50.836;5.356;2022-11-20T03:02:51;5.50;99.90
40822;DHT22;26542;50.836;5.356;2022-11-20T03:05:19;5.60;99.90
40822;DHT22;26542;50.836;5.356;2022-11-20T03:07:45;5.70;99.90
40822;DHT22;26542;50.836;5.356;2022-11-20T03:10:11;5.60;99.90
40822;DHT22;26542;50.836;5.356;2022-11-20T03:12:39;5.60;99.90
40822;DHT22;26542;50.836;5.356;2022-11-20T03:15:06;5.60;99.90
40822;DHT22;26542;50.836;5.356;2022-11-20T03:17:33;5.70;99.90
40822;DHT22;26542;50.836;5.356;2022-11-20T03:20:04;5.70;99.90
40822;DHT22;26542;50.836;5.356;2022-11-20T03:22:32;5.70;99.90
40822;DHT22;26542;50.836;5.356;2022-11-20T03:24:58;5.70;99.90
40822;DHT22;26542;50.836;5.356;2022-11-20T03:27:27;5.70;99.90
40822;DHT22;26542;50.836;5.356;2022-11-20T03:29:57;5.70;99.90
40822;DHT22;26542;50.836;5.356;2022-11-20T03:32:24;5.70;99.90
40822;DHT22;26542;50.836;5.356;2022-11-20T03:34:50;5.70;99.90
40822;DHT22;26542;50.836;5.356;2022-11-20T03:37:16;5.70;99.90
40822;DHT22;26542;50.836;5.356;2022-11-20T03:39:41;5.70;99.90
40822;DHT22;26542;50.836;5.356;2022-11-20T03:42:08;5.60;99.90
40822;DHT22;26542;50.836;5.356;2022-11-20T03:44:54;5.60;99.90
40822;DHT22;26542;50.836;5.356;2022-11-20T03:47:22;5.60;99.90
40822;DHT22;26542;50.836;5.356;2022-11-20T03:49:50;5.50;99.90
40822;DHT22;26542;50.836;5.356;2022-11-20T03:52:15;5.50;99.90
40822;DHT22;26542;50.836;5.356;2022-11-20T03:54:43;5.40;99.90
40822;DHT22;26542;50.836;5.356;2022-11-20T03:57:08;5.40;99.90
40822;DHT22;26542;50.836;5.356;2022-11-20T03:59:36;5.50;99.90
40822;DHT22;26542;50.836;5.356;2022-11-20T04:02:02;5.50;99.90
40822;DHT22;26542;50.836;5.356;2022-11-20T04:04:31;5.50;99.90
40822;DHT22;26542;50.836;5.356;2022-11-20T04:06:56;5.50;99.90
40822;DHT22;26542;50.836;5.356;2022-11-20T04:09:24;5.50;99.90
40822;DHT22;26542;50.836;5.356;2022-11-20T04:11:50;5.70;99.90
40822;DHT22;26542;50.836;5.356;2022-11-20T04:14:16;5.50;99.90
40822;DHT22;26542;50.836;5.356;2022-11-20T04:16:52;5.50;99.90
40822;DHT22;26542;50.836;5.356;2022-11-20T04:19:18;5.50;99.90
40822;DHT22;26542;50.836;5.356;2022-11-20T04:21:45;5.50;99.90
40822;DHT22;26542;50.836;5.356;2022-11-20T04:24:11;5.70;99.90
40822;DHT22;26542;50.836;5.356;2022-11-20T04:26:38;5.50;99.90
40822;DHT22;26542;50.836;5.356;2022-11-20T04:29:04;5.50;99.90
40822;DHT22;26542;50.836;5.356;2022-11-20T04:31:35;5.50;99.90
40822;DHT22;26542;50.836;5.356;2022-11-20T04:34:11;5.50;99.90
40822;DHT22;26542;50.836;5.356;2022-11-20T04:36:39;5.50;99.90
40822;DHT22;26542;50.836;5.356;2022-11-20T04:39:06;5.50;99.90
40822;DHT22;26542;50.836;5.356;2022-11-20T04:41:34;5.50;99.90
40822;DHT22;26542;50.836;5.356;2022-11-20T04:44:02;5.40;99.90
40822;DHT22;26542;50.836;5.356;2022-11-20T04:46:35;5.50;99.90
40822;DHT22;26542;50.836;5.356;2022-11-20T04:49:04;5.60;99.90
40822;DHT22;26542;50.836;5.356;2022-11-20T04:51:33;5.60;99.90
40822;DHT22;26542;50.836;5.356;2022-11-20T04:53:59;5.60;99.90
40822;DHT22;26542;50.836;5.356;2022-11-20T04:56:25;5.60;99.90
40822;DHT22;26542;50.836;5.356;2022-11-20T04:58:54;5.60;99.90
40822;DHT22;26542;50.836;5.356;2022-11-20T05:01:22;5.80;99.90
40822;DHT22;26542;50.836;5.356;2022-11-20T05:03:48;5.60;99.90
40822;DHT22;26542;50.836;5.356;2022-11-20T05:06:17;5.70;99.90
40822;DHT22;26542;50.836;5.356;2022-11-20T05:08:43;5.70;99.90
40822;DHT22;26542;50.836;5.356;2022-11-20T05:11:14;5.80;99.90
40822;DHT22;26542;50.836;5.356;2022-11-20T05:13:41;5.80;99.90
40822;DHT22;26542;50.836;5.356;2022-11-20T05:16:08;5.80;99.90
40822;DHT22;26542;50.836;5.356;2022-11-20T05:18:35;5.80;99.90
40822;DHT22;26542;50.836;5.356;2022-11-20T05:21:02;5.80;99.90
40822;DHT22;26542;50.836;5.356;2022-11-20T05:23:31;5.80;99.90
40822;DHT22;26542;50.836;5.356;2022-11-20T05:25:59;5.80;99.90
40822;DHT22;26542;50.836;5.356;2022-11-20T05:28:28;5.90;99.90
40822;DHT22;26542;50.836;5.356;2022-11-20T05:30:54;5.90;99.90
40822;DHT22;26542;50.836;5.356;2022-11-20T05:33:20;5.90;99.90
40822;DHT22;26542;50.836;5.356;2022-11-20T05:35:47;5.90;99.90
40822;DHT22;26542;50.836;5.356;2022-11-20T05:38:15;5.90;99.90
40822;DHT22;26542;50.836;5.356;2022-11-20T05:40:42;5.80;99.90
40822;DHT22;26542;50.836;5.356;2022-11-20T05:43:10;5.70;99.90
40822;DHT22;26542;50.836;5.356;2022-11-20T05:45:36;5.70;99.90
40822;DHT22;26542;50.836;5.356;2022-11-20T05:48:03;5.80;99.90
40822;DHT22;26542;50.836;5.356;2022-11-20T05:50:29;5.90;99.90
40822;DHT22;26542;50.836;5.356;2022-11-20T05:52:59;5.90;99.90
40822;DHT22;26542;50.836;5.356;2022-11-20T05:55:26;5.90;99.90
40822;DHT22;26542;50.836;5.356;2022-11-20T05:57:55;5.90;99.90
40822;DHT22;26542;50.836;5.356;2022-11-20T06:00:21;5.90;99.90
40822;DHT22;26542;50.836;5.356;2022-11-20T06:02:46;5.90;99.90
40822;DHT22;26542;50.836;5.356;2022-11-20T06:05:13;5.90;99.90
40822;DHT22;26542;50.836;5.356;2022-11-20T06:07:38;6.00;99.90
40822;DHT22;26542;50.836;5.356;2022-11-20T06:10:07;5.90;99.90
40822;DHT22;26542;50.836;5.356;2022-11-20T06:12:33;5.90;99.90
40822;DHT22;26542;50.836;5.356;2022-11-20T06:15:00;5.90;99.90
40822;DHT22;26542;50.836;5.356;2022-11-20T06:17:26;5.90;99.90
40822;DHT22;26542;50.836;5.356;2022-11-20T06:19:52;5.90;99.90
40822;DHT22;26542;50.836;5.356;2022-11-20T06:22:18;6.00;99.90
40822;DHT22;26542;50.836;5.356;2022-11-20T06:24:44;5.90;99.90
40822;DHT22;26542;50.836;5.356;2022-11-20T06:27:12;5.90;99.90
40822;DHT22;26542;50.836;5.356;2022-11-20T06:29:38;5.90;99.90
40822;DHT22;26542;50.836;5.356;2022-11-20T06:32:04;5.90;99.90
40822;DHT22;26542;50.836;5.356;2022-11-20T06:34:31;5.90;99.90
40822;DHT22;26542;50.836;5.356;2022-11-20T06:36:59;5.90;99.90
40822;DHT22;26542;50.836;5.356;2022-11-20T06:39:25;5.90;99.90
40822;DHT22;26542;50.836;5.356;2022-11-20T06:41:52;5.90;99.90
40822;DHT22;26542;50.836;5.356;2022-11-20T06:44:20;5.90;99.90
40822;DHT22;26542;50.836;5.356;2022-11-20T06:46:49;5.80;99.90
40822;DHT22;26542;50.836;5.356;2022-11-20T06:49:15;5.80;99.90
40822;DHT22;26542;50.836;5.356;2022-11-20T06:51:43;6.00;99.90
40822;DHT22;26542;50.836;5.356;2022-11-20T06:54:08;5.90;99.90
40822;DHT22;26542;50.836;5.356;2022-11-20T06:56:34;6.00;99.90
40822;DHT22;26542;50.836;5.356;2022-11-20T06:59:04;6.00;99.90
40822;DHT22;26542;50.836;5.356;2022-11-20T07:01:32;6.00;99.90
40822;DHT22;26542;50.836;5.356;2022-11-20T07:03:58;6.10;99.90
40822;DHT22;26542;50.836;5.356;2022-11-20T07:06:26;6.10;99.90
40822;DHT22;26542;50.836;5.356;2022-11-20T07:08:54;6.10;99.90
40822;DHT22;26542;50.836;5.356;2022-11-20T07:11:23;6.10;99.90
40822;DHT22;26542;50.836;5.356;2022-11-20T07:13:52;5.90;99.90
40822;DHT22;26542;50.836;5.356;2022-11-20T07:16:21;6.00;99.90
40822;DHT22;26542;50.836;5.356;2022-11-20T07:18:47;6.10;99.90
40822;DHT22;26542;50.836;5.356;2022-11-20T07:21:13;6.10;99.90
40822;DHT22;26542;50.836;5.356;2022-11-20T07:23:38;6.10;99.90
40822;DHT22;26542;50.836;5.356;2022-11-20T07:26:09;6.10;99.90
40822;DHT22;26542;50.836;5.356;2022-11-20T07:28:36;6.10;99.90
40822;DHT22;26542;50.836;5.356;2022-11-20T07:31:05;6.10;99.90
40822;DHT22;26542;50.836;5.356;2022-11-20T07:33:34;6.10;99.90
40822;DHT22;26542;50.836;5.356;2022-11-20T07:36:01;6.20;99.90
40822;DHT22;26542;50.836;5.356;2022-11-20T07:38:27;6.30;99.90
40822;DHT22;26542;50.836;5.356;2022-11-20T07:40:56;6.20;99.90
40822;DHT22;26542;50.836;5.356;2022-11-20T07:43:25;6.30;99.90
40822;DHT22;26542;50.836;5.356;2022-11-20T07:45:51;6.30;99.90
40822;DHT22;26542;50.836;5.356;2022-11-20T07:48:17;6.40;99.90
40822;DHT22;26542;50.836;5.356;2022-11-20T07:50:43;6.30;99.90
40822;DHT22;26542;50.836;5.356;2022-11-20T07:53:09;6.40;99.90
40822;DHT22;26542;50.836;5.356;2022-11-20T07:55:37;6.30;99.90
40822;DHT22;26542;50.836;5.356;2022-11-20T07:58:05;6.30;99.90
40822;DHT22;26542;50.836;5.356;2022-11-20T08:00:31;6.30;99.90
40822;DHT22;26542;50.836;5.356;2022-11-20T08:02:57;6.40;99.90
40822;DHT22;26542;50.836;5.356;2022-11-20T08:05:24;6.40;99.90
40822;DHT22;26542;50.836;5.356;2022-11-20T08:07:49;6.50;99.90
40822;DHT22;26542;50.836;5.356;2022-11-20T08:10:15;6.50;99.90
40822;DHT22;26542;50.836;5.356;2022-11-20T08:12:48;6.50;99.90
40822;DHT22;26542;50.836;5.356;2022-11-20T08:15:33;6.70;99.90
40822;DHT22;26542;50.836;5.356;2022-11-20T08:18:05;6.70;99.90
40822;DHT22;26542;50.836;5.356;2022-11-20T08:20:32;6.90;99.90
40822;DHT22;26542;50.836;5.356;2022-11-20T08:23:04;6.80;99.90
40822;DHT22;26542;50.836;5.356;2022-11-20T08:25:32;6.60;99.90
40822;DHT22;26542;50.836;5.356;2022-11-20T08:28:03;6.50;99.90
40822;DHT22;26542;50.836;5.356;2022-11-20T08:30:30;6.60;99.90
40822;DHT22;26542;50.836;5.356;2022-11-20T08:33:07;6.60;99.90
40822;DHT22;26542;50.836;5.356;2022-11-20T08:35:37;6.60;99.90
40822;DHT22;26542;50.836;5.356;2022-11-20T08:38:06;6.70;99.90
40822;DHT22;26542;50.836;5.356;2022-11-20T08:40:34;6.80;99.90
40822;DHT22;26542;50.836;5.356;2022-11-20T08:43:03;6.90;99.90
40822;DHT22;26542;50.836;5.356;2022-11-20T08:45:28;6.80;99.90
40822;DHT22;26542;50.836;5.356;2022-11-20T08:48:00;6.80;99.90
40822;DHT22;26542;50.836;5.356;2022-11-20T08:50:29;6.80;99.90
40822;DHT22;26542;50.836;5.356;2022-11-20T08:53:03;6.90;99.90
40822;DHT22;26542;50.836;5.356;2022-11-20T08:55:29;7.00;99.90
40822;DHT22;26542;50.836;5.356;2022-11-20T08:57:57;7.00;99.90
40822;DHT22;26542;50.836;5.356;2022-11-20T09:00:25;7.00;99.90
40822;DHT22;26542;50.836;5.356;2022-11-20T09:02:51;7.10;99.90
40822;DHT22;26542;50.836;5.356;2022-11-20T09:05:18;7.30;99.90
40822;DHT22;26542;50.836;5.356;2022-11-20T09:07:43;7.30;99.90
40822;DHT22;26542;50.836;5.356;2022-11-20T09:10:12;7.30;99.90
40822;DHT22;26542;50.836;5.356;2022-11-20T09:12:37;7.40;99.90
40822;DHT22;26542;50.836;5.356;2022-11-20T09:15:03;7.30;99.90
40822;DHT22;26542;50.836;5.356;2022-11-20T09:17:29;7.30;99.90
40822;DHT22;26542;50.836;5.356;2022-11-20T09:19:55;7.20;99.90
40822;DHT22;26542;50.836;5.356;2022-11-20T09:22:20;7.30;99.90
40822;DHT22;26542;50.836;5.356;2022-11-20T09:24:46;7.30;99.90
40822;DHT22;26542;50.836;5.356;2022-11-20T09:27:12;7.30;99.90
40822;DHT22;26542;50.836;5.356;2022-11-20T09:29:37;7.30;99.90
40822;DHT22;26542;50.836;5.356;2022-11-20T09:32:06;7.50;99.90
40822;DHT22;26542;50.836;5.356;2022-11-20T09:34:32;7.30;99.90
40822;DHT22;26542;50.836;5.356;2022-11-20T09:36:58;7.40;99.90
40822;DHT22;26542;50.836;5.356;2022-11-20T09:39:23;7.30;99.90
40822;DHT22;26542;50.836;5.356;2022-11-20T09:50:32;7.70;99.90
40822;DHT22;26542;50.836;5.356;2022-11-20T09:53:12;7.80;99.90
40822;DHT22;26542;50.836;5.356;2022-11-20T09:55:40;7.80;99.90
40822;DHT22;26542;50.836;5.356;2022-11-20T09:58:28;7.80;99.90
40822;DHT22;26542;50.836;5.356;2022-11-20T10:00:56;8.00;99.90
40822;DHT22;26542;50.836;5.356;2022-11-20T10:06:41;8.20;99.90
40822;DHT22;26542;50.836;5.356;2022-11-20T10:17:20;8.60;99.90
40822;DHT22;26542;50.836;5.356;2022-11-20T10:25:19;8.60;99.90
40822;DHT22;26542;50.836;5.356;2022-11-20T10:30:41;8.60;99.90
40822;DHT22;26542;50.836;5.356;2022-11-20T10:33:24;8.70;99.90
40822;DHT22;26542;50.836;5.356;2022-11-20T10:36:15;8.80;99.90
40822;DHT22;26542;50.836;5.356;2022-11-20T10:38:48;8.90;99.90
40822;DHT22;26542;50.836;5.356;2022-11-20T10:41:28;9.00;99.90
40822;DHT22;26542;50.836;5.356;2022-11-20T10:44:16;9.00;99.90
40822;DHT22;26542;50.836;5.356;2022-11-20T10:47:03;9.10;99.90
40822;DHT22;26542;50.836;5.356;2022-11-20T10:49:30;9.20;99.90
40822;DHT22;26542;50.836;5.356;2022-11-20T10:52:36;9.30;99.90
40822;DHT22;26542;50.836;5.356;2022-11-20T11:00:25;9.50;99.90
40822;DHT22;26542;50.836;5.356;2022-11-20T11:02:53;9.40;99.90
40822;DHT22;26542;50.836;5.356;2022-11-20T11:07:49;9.60;99.90
40822;DHT22;26542;50.836;5.356;2022-11-20T11:10:17;9.70;99.90
40822;DHT22;26542;50.836;5.356;2022-11-20T11:12:46;9.80;99.90
40822;DHT22;26542;50.836;5.356;2022-11-20T11:15:38;9.70;99.90
40822;DHT22;26542;50.836;5.356;2022-11-20T11:18:09;9.70;99.90
40822;DHT22;26542;50.836;5.356;2022-11-20T11:20:35;9.70;99.90
40822;DHT22;26542;50.836;5.356;2022-11-20T11:23:03;9.70;99.90
40822;DHT22;26542;50.836;5.356;2022-11-20T11:25:30;9.80;99.90
40822;DHT22;26542;50.836;5.356;2022-11-20T11:28:01;9.90;99.90
40822;DHT22;26542;50.836;5.356;2022-11-20T11:30:29;10.00;99.90
40822;DHT22;26542;50.836;5.356;2022-11-20T11:33:08;9.90;99.90
40822;DHT22;26542;50.836;5.356;2022-11-20T11:35:44;10.00;99.90
40822;DHT22;26542;50.836;5.356;2022-11-20T11:38:21;10.10;99.90
40822;DHT22;26542;50.836;5.356;2022-11-20T11:40:55;10.20;99.90
40822;DHT22;26542;50.836;5.356;2022-11-20T11:43:35;10.30;99.90
40822;DHT22;26542;50.836;5.356;2022-11-20T11:46:34;10.30;99.90
40822;DHT22;26542;50.836;5.356;2022-11-20T11:49:22;10.40;99.90
40822;DHT22;26542;50.836;5.356;2022-11-20T11:54:53;10.30;99.90
40822;DHT22;26542;50.836;5.356;2022-11-20T12:00:19;10.30;99.90
40822;DHT22;26542;50.836;5.356;2022-11-20T12:08:59;10.30;99.90
40822;DHT22;26542;50.836;5.356;2022-11-20T12:16:55;10.30;99.90
40822;DHT22;26542;50.836;5.356;2022-11-20T12:19:23;10.30;99.90
40822;DHT22;26542;50.836;5.356;2022-11-20T12:22:02;10.30;99.90
40822;DHT22;26542;50.836;5.356;2022-11-20T12:24:44;10.30;99.90
40822;DHT22;26542;50.836;5.356;2022-11-20T12:31:09;10.30;99.90
40822;DHT22;26542;50.836;5.356;2022-11-20T12:33:49;10.20;99.90
40822;DHT22;26542;50.836;5.356;2022-11-20T12:39:12;10.20;99.90
40822;DHT22;26542;50.836;5.356;2022-11-20T12:50:32;10.10;99.90
40822;DHT22;26542;50.836;5.356;2022-11-20T12:56:41;10.00;99.90
40822;DHT22;26542;50.836;5.356;2022-11-20T13:00:03;10.00;99.90
40822;DHT22;26542;50.836;5.356;2022-11-20T13:08:02;10.10;99.90
40822;DHT22;26542;50.836;5.356;2022-11-20T13:10:47;10.10;99.90
40822;DHT22;26542;50.836;5.356;2022-11-20T13:13:25;10.10;99.90
40822;DHT22;26542;50.836;5.356;2022-11-20T13:16:06;9.90;99.90
40822;DHT22;26542;50.836;5.356;2022-11-20T13:18:39;9.90;99.90
40822;DHT22;26542;50.836;5.356;2022-11-20T13:21:19;9.80;99.90
40822;DHT22;26542;50.836;5.356;2022-11-20T13:23:45;9.80;99.90
40822;DHT22;26542;50.836;5.356;2022-11-20T13:26:20;9.70;99.90
40822;DHT22;26542;50.836;5.356;2022-11-20T13:28:58;9.60;99.90
40822;DHT22;26542;50.836;5.356;2022-11-20T13:31:33;9.50;99.90
40822;DHT22;26542;50.836;5.356;2022-11-20T13:34:03;9.60;99.90
40822;DHT22;26542;50.836;5.356;2022-11-20T13:36:30;9.60;99.90
40822;DHT22;26542;50.836;5.356;2022-11-20T13:39:00;9.50;99.90
40822;DHT22;26542;50.836;5.356;2022-11-20T13:41:35;9.50;99.90
40822;DHT22;26542;50.836;5.356;2022-11-20T13:44:10;9.40;99.90
40822;DHT22;26542;50.836;5.356;2022-11-20T13:46:43;9.40;99.90
40822;DHT22;26542;50.836;5.356;2022-11-20T13:49:38;9.40;99.90
40822;DHT22;26542;50.836;5.356;2022-11-20T14:00:24;9.50;99.90
40822;DHT22;26542;50.836;5.356;2022-11-20T14:03:18;9.40;99.90
40822;DHT22;26542;50.836;5.356;2022-11-20T14:05:59;9.40;99.90
40822;DHT22;26542;50.836;5.356;2022-11-20T14:08:33;9.50;99.90
40822;DHT22;26542;50.836;5.356;2022-11-20T14:11:21;9.50;99.90
40822;DHT22;26542;50.836;5.356;2022-11-20T14:14:13;9.40;99.90
40822;DHT22;26542;50.836;5.356;2022-11-20T14:16:41;9.40;99.90
40822;DHT22;26542;50.836;5.356;2022-11-20T14:21:45;9.10;99.90
40822;DHT22;26542;50.836;5.356;2022-11-20T14:24:12;9.20;99.90
40822;DHT22;26542;50.836;5.356;2022-11-20T14:26:41;9.30;99.90
40822;DHT22;26542;50.836;5.356;2022-11-20T14:29:17;9.20;99.90
40822;DHT22;26542;50.836;5.356;2022-11-20T14:31:44;9.20;99.90
40822;DHT22;26542;50.836;5.356;2022-11-20T14:34:20;9.20;99.90
40822;DHT22;26542;50.836;5.356;2022-11-20T14:36:47;9.20;99.90
40822;DHT22;26542;50.836;5.356;2022-11-20T14:39:21;9.10;99.90
40822;DHT22;26542;50.836;5.356;2022-11-20T14:41:51;9.00;99.90
40822;DHT22;26542;50.836;5.356;2022-11-20T14:44:23;8.90;99.90
40822;DHT22;26542;50.836;5.356;2022-11-20T14:46:55;8.90;99.90
40822;DHT22;26542;50.836;5.356;2022-11-20T14:49:22;8.90;99.90
40822;DHT22;26542;50.836;5.356;2022-11-20T14:51:59;8.90;99.90
40822;DHT22;26542;50.836;5.356;2022-11-20T14:54:25;8.90;99.90
40822;DHT22;26542;50.836;5.356;2022-11-20T14:56:58;9.00;99.90
40822;DHT22;26542;50.836;5.356;2022-11-20T14:59:27;8.90;99.90
40822;DHT22;26542;50.836;5.356;2022-11-20T15:02:00;9.00;99.90
40822;DHT22;26542;50.836;5.356;2022-11-20T15:04:29;8.90;99.90
40822;DHT22;26542;50.836;5.356;2022-11-20T15:06:57;8.90;99.90
40822;DHT22;26542;50.836;5.356;2022-11-20T15:09:23;8.90;99.90
40822;DHT22;26542;50.836;5.356;2022-11-20T15:11:57;8.80;99.90
40822;DHT22;26542;50.836;5.356;2022-11-20T15:14:26;8.70;99.90
40822;DHT22;26542;50.836;5.356;2022-11-20T15:16:52;8.80;99.90
40822;DHT22;26542;50.836;5.356;2022-11-20T15:19:25;8.60;99.90
40822;DHT22;26542;50.836;5.356;2022-11-20T15:21:51;8.70;99.90
40822;DHT22;26542;50.836;5.356;2022-11-20T15:24:18;8.70;99.90
40822;DHT22;26542;50.836;5.356;2022-11-20T15:26:48;8.70;99.90
40822;DHT22;26542;50.836;5.356;2022-11-20T15:29:15;8.70;99.90
40822;DHT22;26542;50.836;5.356;2022-11-20T15:31:45;8.70;99.90
40822;DHT22;26542;50.836;5.356;2022-11-20T15:34:12;8.70;99.90
40822;DHT22;26542;50.836;5.356;2022-11-20T15:36:42;8.60;99.90
40822;DHT22;26542;50.836;5.356;2022-11-20T15:39:08;8.70;99.90
40822;DHT22;26542;50.836;5.356;2022-11-20T15:41:37;8.60;99.90
40822;DHT22;26542;50.836;5.356;2022-11-20T15:44:04;8.70;99.90
40822;DHT22;26542;50.836;5.356;2022-11-20T15:46:36;8.60;99.90
40822;DHT22;26542;50.836;5.356;2022-11-20T15:49:04;8.70;99.90
40822;DHT22;26542;50.836;5.356;2022-11-20T15:51:33;8.70;99.90
40822;DHT22;26542;50.836;5.356;2022-11-20T15:53:59;8.70;99.90
40822;DHT22;26542;50.836;5.356;2022-11-20T15:56:26;8.70;99.90
40822;DHT22;26542;50.836;5.356;2022-11-20T15:58:56;8.80;99.90
40822;DHT22;26542;50.836;5.356;2022-11-20T16:01:22;8.70;99.90
40822;DHT22;26542;50.836;5.356;2022-11-20T16:03:48;8.60;99.90
40822;DHT22;26542;50.836;5.356;2022-11-20T16:06:14;8.60;99.90
40822;DHT22;26542;50.836;5.356;2022-11-20T16:08:41;8.60;99.90
40822;DHT22;26542;50.836;5.356;2022-11-20T16:11:08;8.60;99.90
40822;DHT22;26542;50.836;5.356;2022-11-20T16:13:36;8.60;99.90
40822;DHT22;26542;50.836;5.356;2022-11-20T16:16:30;8.50;99.90
40822;DHT22;26542;50.836;5.356;2022-11-20T16:18:57;8.60;99.90
40822;DHT22;26542;50.836;5.356;2022-11-20T16:21:23;8.70;99.90
40822;DHT22;26542;50.836;5.356;2022-11-20T16:24:02;8.70;99.90
40822;DHT22;26542;50.836;5.356;2022-11-20T16:26:28;8.70;99.90
40822;DHT22;26542;50.836;5.356;2022-11-20T16:28:54;8.70;99.90
40822;DHT22;26542;50.836;5.356;2022-11-20T16:31:21;8.80;99.90
40822;DHT22;26542;50.836;5.356;2022-11-20T16:33:54;8.90;99.90
40822;DHT22;26542;50.836;5.356;2022-11-20T16:36:21;8.90;99.90
40822;DHT22;26542;50.836;5.356;2022-11-20T16:38:55;8.80;99.90
40822;DHT22;26542;50.836;5.356;2022-11-20T16:41:22;8.90;99.90
40822;DHT22;26542;50.836;5.356;2022-11-20T16:43:50;8.90;99.90
40822;DHT22;26542;50.836;5.356;2022-11-20T16:46:18;9.00;99.90
40822;DHT22;26542;50.836;5.356;2022-11-20T16:48:43;9.00;99.90
40822;DHT22;26542;50.836;5.356;2022-11-20T16:51:13;9.10;99.90
40822;DHT22;26542;50.836;5.356;2022-11-20T16:53:39;9.00;99.90
40822;DHT22;26542;50.836;5.356;2022-11-20T16:56:14;9.10;99.90
40822;DHT22;26542;50.836;5.356;2022-11-20T16:58:47;9.10;99.90
40822;DHT22;26542;50.836;5.356;2022-11-20T17:01:15;9.10;99.90
40822;DHT22;26542;50.836;5.356;2022-11-20T17:03:43;9.10;99.90
40822;DHT22;26542;50.836;5.356;2022-11-20T17:06:18;9.10;99.90
40822;DHT22;26542;50.836;5.356;2022-11-20T17:08:44;9.00;99.90
40822;DHT22;26542;50.836;5.356;2022-11-20T17:11:17;9.00;99.90
40822;DHT22;26542;50.836;5.356;2022-11-20T17:13:43;9.00;99.90
40822;DHT22;26542;50.836;5.356;2022-11-20T17:16:12;9.00;99.90
40822;DHT22;26542;50.836;5.356;2022-11-20T17:18:38;8.90;99.90
40822;DHT22;26542;50.836;5.356;2022-11-20T17:21:07;8.90;99.90
40822;DHT22;26542;50.836;5.356;2022-11-20T17:23:35;8.90;99.90
40822;DHT22;26542;50.836;5.356;2022-11-20T17:26:10;8.90;99.90
40822;DHT22;26542;50.836;5.356;2022-11-20T17:28:37;8.90;99.90
40822;DHT22;26542;50.836;5.356;2022-11-20T17:31:05;8.90;99.90
40822;DHT22;26542;50.836;5.356;2022-11-20T17:33:34;8.90;99.90